Huvudsida
METAR-TAF:

METAR-TAF

Flygplatser :

San Sebastián Airport

San Sebastián, Spanien

latitud: 43-21N, longitud: 001-48W, höjd: 5 m

Aktuellt väderrapport

Denna rapport gjordes för 44 minuter sedan, klockan 05:30 UTC
Vind 3 kt från syd, varierande mellan sydost och sydväst
Temperatur 17°C
Fuktighet 94%
Tryck 1023 hPa
Sikt 10 km eller mer
Inga moln under 1 500 m eller inga cumulonimbus

METAR: LESO 230530Z 17003KT 140V220 CAVOK 17/16 Q1023

Tid: 08:14 (06:14 UTC)

Väderprognos

Denna rapport gjordes för 1 timme och 14 minuter sedan, klockan 05:00 UTC
Prognos gäller från 23 kl. 06 UTC till 24 kl. 06 UTC
Vind 4 kt från syd
Sikt 10 km eller mer
Inga moln under 1 500 m eller inga cumulonimbus
Sannolikhet 30%
från 23 kl. 09 UTC till 23 kl. 18 UTC
Vind 10 kt från nord
Sannolikhet 40% :
Temporärt
från 23 kl. 21 UTC till 24 kl. 06 UTC
Brutna moln på en höjd av 1000 ft

TAF: LESO 230500Z 2306/2406 19004KT CAVOK TX26/2312Z TN16/2306Z PROB30 2309/2318 01010KT PROB40 TEMPO 2321/2406 BKN010

Aktuella väderrapporter och prognoser från 4000 flygplatser (METAR- och TAF-rapporter).

De tillgängliga stationerna syns som gula och röda prickar på kartan.

För musen över prickarna för att se namnen på stationerna.

Klicka sedan för att få väderrapporter och prognoser.

För att ändra kartan: Klicka på de gröna knapparna med ett svart kors på för att zooma in; den gröna knappen med ett streck på för att zooma ut; eller på de gröna pilarna för angränsande kartor.


METAR-TAF: